Lancaster, Ohio
Current Conditions -  °F | °C
As of 7:53 AM on Tuesday 21 Oct 2014 (Local Time) from KLHQ Reporting Station
Haze Haze  
Wind Chill: 51°   Ceiling: 1000
Heat Index: 51°   Visibility: 4mi
Dew Point: 48°   Wind: 7mph
Humidity: 89%   Direction: 300°WNW
Pressure: 29.91"   Gusts: NA
Location:  39.71°N, 82.6°W
Report Text: KLHQ 211153Z AUTO 30006KT 4SM BR OVC010 11/09 A2991 RMK AO2 CIG 008V013 SLP130 60001 70049 T01060089 10106 20083 53006
Loading
Personal Weather Stations






























Interactive Weather Map
Tropical Storm Tracking
New forecast layout! Learn more

10-Day Weather Forecast

Advertisements
Track Severe Weather on mobile